Hatfield, Minnesota
Current Conditions -  °F | °C
As of 8:14 AM on Sunday 25 Jan 2015 (Local Time) from KPQN Reporting Station
Haze Haze  
Wind Chill: 23°   Ceiling: 500
Heat Index: 30°   Visibility: 5mi
Dew Point: 30°   Wind: 7mph
Humidity: 100%   Direction: 20°NNE
Pressure: 29.9"   Gusts: NA
Location:  44.066°N, 96.3302°W
Report Text: KPQN 251414Z AUTO 02006KT 5SM BR BKN005 OVC010 M01/M01 A2990 RMK AO2
Loading
Personal Weather Stations






























Interactive Weather Map New forecast layout! Learn more

10-Day Weather Forecast

Advertisements
Track Severe Weather on mobile